createdAt,value
2022-12-19T00:00:36.953Z,105.80
2022-12-19T00:03:05.258Z,102.47
2022-12-19T00:05:36.979Z,104.55
2022-12-19T00:08:09.993Z,99.30
2022-12-19T00:10:56.203Z,102.53
2022-12-19T00:13:24.334Z,97.40
2022-12-19T00:15:52.367Z,110.60
2022-12-19T00:18:20.594Z,101.07
2022-12-19T00:20:56.016Z,98.85
2022-12-19T00:23:24.019Z,89.90
2022-12-19T00:25:53.370Z,88.90
2022-12-19T00:28:22.296Z,92.90
2022-12-19T00:30:50.271Z,93.25
2022-12-19T00:33:21.307Z,100.05
2022-12-19T00:35:49.371Z,97.55
2022-12-19T00:38:17.351Z,97.38
2022-12-19T00:40:45.337Z,93.95
2022-12-19T00:43:14.728Z,100.57
2022-12-19T00:45:42.669Z,111.80
2022-12-19T00:48:10.668Z,113.32
2022-12-19T00:50:40.820Z,105.63
2022-12-19T00:53:08.813Z,98.95
2022-12-19T00:55:39.701Z,97.28
2022-12-19T00:58:07.691Z,110.03
2022-12-19T01:00:37.101Z,103.43
2022-12-19T01:03:05.672Z,100.60
2022-12-19T01:05:33.787Z,98.60
2022-12-19T01:08:02.241Z,89.97
2022-12-19T01:10:30.425Z,92.93
2022-12-19T01:12:57.433Z,92.05
2022-12-19T01:15:25.389Z,90.63
2022-12-19T01:17:54.731Z,84.60
2022-12-19T01:20:29.654Z,82.28
2022-12-19T01:23:00.147Z,102.00
2022-12-19T01:25:28.652Z,98.80
2022-12-19T01:27:57.059Z,106.80
2022-12-19T01:30:25.023Z,116.43
2022-12-19T01:32:55.676Z,96.35
2022-12-19T01:35:24.220Z,106.10
2022-12-19T01:37:53.887Z,102.00
2022-12-19T01:40:36.726Z,102.68
2022-12-19T01:43:05.156Z,93.57
2022-12-19T01:45:35.936Z,95.68
2022-12-19T01:48:20.446Z,95.68
2022-12-19T01:51:01.208Z,84.15
2022-12-19T01:53:34.845Z,99.50
2022-12-19T01:56:08.381Z,86.97
2022-12-19T01:58:37.726Z,89.30
2022-12-19T02:01:05.980Z,107.75
2022-12-19T02:03:38.605Z,93.63
2022-12-19T02:06:08.101Z,100.75
2022-12-19T02:08:37.761Z,95.88
2022-12-19T02:11:05.855Z,102.07
2022-12-19T02:13:34.258Z,103.88
2022-12-19T02:16:10.115Z,113.20
2022-12-19T02:18:49.710Z,105.38
2022-12-19T02:21:26.573Z,101.72
2022-12-19T02:24:17.829Z,105.15
2022-12-19T02:26:58.431Z,102.63
2022-12-19T02:29:54.610Z,109.05
2022-12-19T02:32:32.541Z,117.07
2022-12-19T02:35:11.324Z,100.65
2022-12-19T02:37:49.220Z,101.05
2022-12-19T02:40:24.973Z,104.18
2022-12-19T02:42:58.401Z,108.68
2022-12-19T02:45:29.056Z,96.25
2022-12-19T02:48:04.491Z,81.57
2022-12-19T02:50:40.927Z,90.95
2022-12-19T02:53:11.872Z,101.18
2022-12-19T02:55:48.479Z,103.68
2022-12-19T02:58:46.675Z,104.53
2022-12-19T03:01:27.754Z,132.98
2022-12-19T03:04:07.285Z,109.47
2022-12-19T03:06:44.228Z,102.88
2022-12-19T03:09:18.624Z,104.55
2022-12-19T03:11:50.478Z,114.82
2022-12-19T03:14:21.151Z,109.82
2022-12-19T03:16:49.263Z,111.28
2022-12-19T03:19:18.622Z,107.38
2022-12-19T03:21:50.708Z,96.05
2022-12-19T03:24:20.095Z,121.20
2022-12-19T03:26:54.296Z,116.18
2022-12-19T03:31:53.818Z,106.95
2022-12-19T03:34:27.917Z,108.65
2022-12-19T03:36:59.620Z,136.82
2022-12-19T03:39:30.306Z,104.93
2022-12-19T03:42:17.867Z,78.95
2022-12-19T03:44:46.101Z,84.15
2022-12-19T03:47:18.698Z,90.00
2022-12-19T03:49:49.064Z,85.13
2022-12-19T03:52:26.247Z,102.72
2022-12-19T03:55:01.609Z,93.13
2022-12-19T03:57:32.655Z,115.25
2022-12-19T04:00:06.615Z,93.70
2022-12-19T04:05:10.252Z,94.28
2022-12-19T04:07:40.077Z,103.35
2022-12-19T04:10:12.264Z,106.93
2022-12-19T04:12:44.182Z,94.82
2022-12-19T04:15:14.075Z,98.82
2022-12-19T04:17:46.117Z,93.10
2022-12-19T04:20:17.782Z,105.57
2022-12-19T04:22:51.943Z,102.88
2022-12-19T04:25:29.237Z,110.60
2022-12-19T04:28:00.974Z,108.28
2022-12-19T04:30:29.150Z,100.68
2022-12-19T04:32:58.217Z,100.45
2022-12-19T04:35:29.782Z,98.15
2022-12-19T04:37:57.764Z,95.53
2022-12-19T04:40:25.755Z,107.97
2022-12-19T04:42:54.082Z,104.45
2022-12-19T04:45:23.240Z,93.20
2022-12-19T04:47:51.336Z,191.88
2022-12-19T04:50:19.380Z,102.15
2022-12-19T04:52:52.194Z,108.55
2022-12-19T04:55:22.362Z,97.28
2022-12-19T04:57:50.327Z,92.28
2022-12-19T05:00:18.719Z,102.80
2022-12-19T05:02:46.865Z,98.07
2022-12-19T05:05:15.034Z,99.47
2022-12-19T05:07:42.988Z,109.38
2022-12-19T05:10:12.434Z,108.88
2022-12-19T05:12:40.429Z,102.57
2022-12-19T05:15:09.460Z,108.85
2022-12-19T05:17:37.800Z,93.15
2022-12-19T05:20:07.324Z,101.88
2022-12-19T05:22:35.265Z,96.78
2022-12-19T05:25:03.234Z,104.28
2022-12-19T05:27:33.068Z,99.38
2022-12-19T05:30:01.393Z,91.43
2022-12-19T05:32:31.729Z,73.57
2022-12-19T05:34:59.696Z,92.55
2022-12-19T05:37:27.899Z,88.25
2022-12-19T05:39:55.900Z,89.28
2022-12-19T05:42:23.918Z,93.88
2022-12-19T05:44:53.304Z,87.35
2022-12-19T05:47:21.236Z,82.43
2022-12-19T05:49:49.214Z,94.10
2022-12-19T05:52:17.176Z,94.00
2022-12-19T05:54:45.207Z,98.50
2022-12-19T05:57:13.189Z,105.03
2022-12-19T05:59:41.165Z,102.90
2022-12-19T06:02:10.620Z,102.95
2022-12-19T06:04:38.796Z,102.57
2022-12-19T06:07:06.771Z,92.13
2022-12-19T06:09:34.777Z,93.93
2022-12-19T06:12:02.876Z,95.35
2022-12-19T06:14:30.860Z,72.78
2022-12-19T06:16:58.831Z,90.28
2022-12-19T06:19:28.517Z,62.35
2022-12-19T06:21:56.560Z,72.72
2022-12-19T06:24:25.884Z,75.10
2022-12-19T06:26:53.824Z,74.97
2022-12-19T06:29:22.208Z,73.70
2022-12-19T06:31:50.430Z,67.57
2022-12-19T06:34:33.219Z,60.45
2022-12-19T06:37:08.439Z,62.45
2022-12-19T06:39:36.763Z,67.50
2022-12-19T06:42:22.401Z,70.90
2022-12-19T06:44:50.665Z,62.80
2022-12-19T06:47:18.685Z,69.05
2022-12-19T06:49:50.304Z,69.50
2022-12-19T06:52:19.740Z,65.82
2022-12-19T06:54:47.722Z,67.20
2022-12-19T06:57:16.356Z,67.22
2022-12-19T06:59:44.365Z,84.68
2022-12-19T07:02:25.879Z,86.03
2022-12-19T07:04:59.073Z,74.57
2022-12-19T07:07:29.752Z,65.93
2022-12-19T07:09:57.759Z,75.30
2022-12-19T07:12:25.694Z,71.18
2022-12-19T07:14:53.937Z,70.20
2022-12-19T07:17:23.546Z,72.05
2022-12-19T07:19:51.773Z,83.65
2022-12-19T07:22:19.891Z,91.50
2022-12-19T07:24:49.528Z,86.15
2022-12-19T07:27:17.722Z,84.38
2022-12-19T07:29:45.691Z,86.55
2022-12-19T07:32:13.703Z,94.18
2022-12-19T07:34:42.406Z,93.47
2022-12-19T07:37:10.392Z,93.00
2022-12-19T07:39:38.383Z,97.70
2022-12-19T07:42:07.721Z,93.68
2022-12-19T07:44:35.746Z,101.38
2022-12-19T07:47:03.654Z,99.07
2022-12-19T07:49:31.605Z,110.85
2022-12-19T07:51:59.563Z,111.78
2022-12-19T07:54:27.601Z,101.95
2022-12-19T07:56:55.544Z,93.30
2022-12-19T07:59:30.344Z,104.45
2022-12-19T08:02:00.424Z,92.00
2022-12-19T08:04:28.606Z,99.30
2022-12-19T08:06:56.553Z,92.22
2022-12-19T08:09:27.734Z,84.32
2022-12-19T08:11:55.912Z,125.65
2022-12-19T08:14:25.295Z,105.07
2022-12-19T08:17:19.785Z,102.45
2022-12-19T08:19:41.202Z,100.78
2022-12-19T08:22:09.193Z,83.07
2022-12-19T08:24:37.307Z,88.07
2022-12-19T08:27:05.396Z,91.30
2022-12-19T08:29:34.953Z,100.28
2022-12-19T08:32:02.945Z,82.80
2022-12-19T08:34:31.054Z,85.25
2022-12-19T08:36:58.993Z,133.30
2022-12-19T08:39:26.957Z,89.05
2022-12-19T08:41:54.906Z,79.97
2022-12-19T08:44:23.172Z,97.60
2022-12-19T08:46:52.649Z,93.68
2022-12-19T08:49:21.124Z,78.18
2022-12-19T08:51:49.091Z,86.13
2022-12-19T08:54:17.123Z,87.53
2022-12-19T08:56:46.266Z,110.15
2022-12-19T08:59:19.294Z,77.68
2022-12-19T09:02:01.901Z,83.95
2022-12-19T09:05:59.558Z,86.85
2022-12-19T09:07:18.742Z,91.00
2022-12-19T09:09:46.874Z,80.43
2022-12-19T09:12:16.672Z,86.93
2022-12-19T09:14:45.558Z,101.68
2022-12-19T09:17:15.604Z,117.40
2022-12-19T09:19:47.057Z,99.70
2022-12-19T09:22:16.062Z,97.30
2022-12-19T09:24:44.926Z,93.80
2022-12-19T09:27:12.947Z,90.45
2022-12-19T09:29:42.842Z,86.75
2022-12-19T09:32:11.789Z,74.97
2022-12-19T09:34:41.226Z,102.15
2022-12-19T09:37:15.958Z,119.38
2022-12-19T09:39:46.454Z,88.10
2022-12-19T09:42:34.242Z,70.63
2022-12-19T09:45:31.311Z,62.03
2022-12-19T09:48:02.056Z,60.15
2022-12-19T09:50:48.573Z,55.10
2022-12-19T09:53:25.394Z,58.15
2022-12-19T09:55:55.141Z,53.38
2022-12-19T09:58:35.940Z,55.40
2022-12-19T10:01:09.408Z,54.22
2022-12-19T10:03:41.184Z,56.88
2022-12-19T10:07:11.033Z,58.70
2022-12-19T10:10:19.125Z,67.88
2022-12-19T10:15:03.771Z,57.28
2022-12-19T10:17:49.230Z,62.53
2022-12-19T10:20:23.451Z,61.67
2022-12-19T10:23:19.314Z,69.10
2022-12-19T10:25:53.779Z,65.57
2022-12-19T10:28:41.294Z,68.75
2022-12-19T10:31:21.513Z,65.45
2022-12-19T10:33:57.128Z,63.50
2022-12-19T10:36:48.754Z,75.30
2022-12-19T10:39:24.485Z,47.85
2022-12-19T10:41:58.392Z,57.90
2022-12-19T10:46:57.076Z,61.13
2022-12-19T10:49:27.614Z,56.20
2022-12-19T10:52:00.155Z,70.35
2022-12-19T10:54:40.008Z,50.10
2022-12-19T10:57:33.217Z,52.53
2022-12-19T11:00:04.312Z,66.22
2022-12-19T11:02:41.604Z,45.03
2022-12-19T11:05:24.287Z,36.28
2022-12-19T11:08:04.550Z,42.25
2022-12-19T11:10:57.726Z,54.38
2022-12-19T11:18:35.115Z,51.92
2022-12-19T11:22:04.798Z,49.72
2022-12-19T11:26:42.560Z,55.33
2022-12-19T11:29:35.298Z,49.10
2022-12-19T11:29:41.073Z,49.85
2022-12-19T11:30:39.548Z,40.50
2022-12-19T11:33:56.659Z,45.50
2022-12-19T11:36:34.051Z,34.97
2022-12-19T11:39:02.442Z,38.42
2022-12-19T11:41:35.363Z,24.95
2022-12-19T11:44:13.940Z,36.63
2022-12-19T11:46:48.241Z,30.70
2022-12-19T11:49:27.601Z,32.22
2022-12-19T11:52:02.265Z,24.20
2022-12-19T11:54:34.046Z,30.35
2022-12-19T11:57:02.229Z,24.30
2022-12-19T11:59:35.988Z,32.53
2022-12-19T12:02:31.256Z,28.67
2022-12-19T12:05:21.965Z,47.20
2022-12-19T12:09:17.145Z,63.10
2022-12-19T12:16:33.654Z,44.03
2022-12-19T12:25:06.115Z,34.80
2022-12-19T12:31:00.903Z,33.13
2022-12-19T12:31:08.850Z,33.38
2022-12-19T12:31:16.207Z,45.80
2022-12-19T12:32:03.191Z,32.83
2022-12-19T12:35:32.828Z,34.40
2022-12-19T12:38:33.358Z,92.28
2022-12-19T12:41:16.464Z,124.53
2022-12-19T12:43:57.690Z,63.08
2022-12-19T12:46:28.734Z,82.35
2022-12-19T12:49:02.344Z,37.25
2022-12-19T12:51:33.166Z,43.45
2022-12-19T12:54:07.580Z,31.98
2022-12-19T12:56:36.592Z,34.30
2022-12-19T12:59:21.708Z,34.55
2022-12-19T13:01:58.261Z,25.90
2022-12-19T13:04:31.410Z,20.15
2022-12-19T13:07:16.257Z,25.52
2022-12-19T13:09:44.945Z,23.13
2022-12-19T13:12:39.355Z,17.83
2022-12-19T13:15:34.351Z,16.70
2022-12-19T13:18:12.919Z,15.48
2022-12-19T13:20:45.650Z,28.10
2022-12-19T13:23:33.443Z,17.85
2022-12-19T13:26:01.772Z,25.42
2022-12-19T13:28:42.298Z,18.95
2022-12-19T13:31:22.878Z,23.27
2022-12-19T13:34:19.190Z,25.00
2022-12-19T13:39:51.849Z,18.27
2022-12-19T13:40:11.107Z,17.48
2022-12-19T13:43:10.765Z,16.95
2022-12-19T13:45:42.848Z,12.65
2022-12-19T13:48:17.265Z,14.95
2022-12-19T13:50:49.619Z,18.52
2022-12-19T13:53:20.609Z,22.20
2022-12-19T13:55:49.012Z,18.77
2022-12-19T13:58:29.333Z,23.65
2022-12-19T14:00:59.984Z,19.83
2022-12-19T14:03:35.702Z,15.18
2022-12-19T14:06:16.231Z,16.52
2022-12-19T14:09:46.234Z,13.27
2022-12-19T14:13:48.757Z,13.88
2022-12-19T14:14:48.440Z,8.63
2022-12-19T14:17:30.644Z,9.20
2022-12-19T14:20:32.414Z,6.40
2022-12-19T14:22:46.575Z,17.95
2022-12-19T14:26:14.467Z,10.25
2022-12-19T14:28:17.341Z,15.73
2022-12-19T14:30:55.903Z,14.45
2022-12-19T14:33:45.706Z,28.65
2022-12-19T14:36:26.042Z,11.75
2022-12-19T14:39:27.922Z,23.90
2022-12-19T14:42:04.287Z,19.85
2022-12-19T14:52:35.814Z,14.43
2022-12-19T14:54:01.162Z,21.60
2022-12-19T14:54:05.765Z,16.75
2022-12-19T14:54:40.650Z,16.58
2022-12-19T14:59:01.776Z,16.02
2022-12-19T15:01:32.014Z,15.35
2022-12-19T15:04:49.168Z,15.93
2022-12-19T15:07:08.494Z,18.65
2022-12-19T15:10:58.913Z,13.38
2022-12-19T15:14:54.464Z,14.65
2022-12-19T15:15:48.400Z,17.77
2022-12-19T15:18:20.860Z,15.80
2022-12-19T15:20:49.506Z,11.63
2022-12-19T15:23:21.973Z,11.60
2022-12-19T15:26:07.913Z,8.93
2022-12-19T15:28:41.572Z,8.93
2022-12-19T15:31:24.392Z,8.05
2022-12-19T15:34:33.482Z,11.98
2022-12-19T15:36:40.495Z,10.10
2022-12-19T15:39:08.465Z,13.40
2022-12-19T15:41:36.866Z,28.15
2022-12-19T15:44:10.604Z,63.72
2022-12-19T15:46:46.334Z,29.70
2022-12-19T15:49:17.538Z,113.32
2022-12-19T15:51:46.216Z,14.93
2022-12-19T15:54:47.312Z,24.52
2022-12-19T15:57:02.335Z,15.32
2022-12-19T15:59:38.685Z,24.38
2022-12-19T16:02:18.308Z,16.52
2022-12-19T16:04:48.551Z,13.73
2022-12-19T16:07:18.700Z,14.68
2022-12-19T16:09:47.057Z,10.32
2022-12-19T16:12:17.023Z,14.43
2022-12-19T16:14:45.532Z,16.35
2022-12-19T16:17:19.213Z,11.88
2022-12-19T16:19:47.409Z,64.50
2022-12-19T16:22:19.722Z,41.58
2022-12-19T16:24:48.100Z,35.38
2022-12-19T16:27:23.702Z,67.65
2022-12-19T16:29:52.500Z,22.00
2022-12-19T16:32:24.341Z,15.18
2022-12-19T16:34:53.117Z,16.75
2022-12-19T16:37:21.139Z,42.67
2022-12-19T16:39:49.144Z,19.90
2022-12-19T16:42:18.294Z,24.02
2022-12-19T16:44:48.412Z,51.95
2022-12-19T16:47:19.002Z,61.03
2022-12-19T16:49:48.503Z,38.60
2022-12-19T16:52:16.526Z,58.17
2022-12-19T16:54:44.543Z,38.28
2022-12-19T16:57:20.894Z,34.45
2022-12-19T16:59:49.706Z,28.15
2022-12-19T17:02:40.030Z,32.83
2022-12-19T17:05:17.025Z,36.13
2022-12-19T17:07:45.674Z,25.48
2022-12-19T17:10:13.931Z,23.05
2022-12-19T17:12:42.925Z,27.70
2022-12-19T17:15:20.869Z,27.50
2022-12-19T17:17:49.368Z,26.58
2022-12-19T17:20:20.743Z,27.73
2022-12-19T17:22:50.214Z,41.00
2022-12-19T17:25:22.249Z,32.08
2022-12-19T17:27:53.622Z,27.73
2022-12-19T17:30:23.272Z,27.13
2022-12-19T17:32:55.926Z,27.02
2022-12-19T17:35:35.993Z,28.45
2022-12-19T17:38:05.298Z,27.85
2022-12-19T17:40:34.994Z,33.08
2022-12-19T17:43:03.357Z,34.00
2022-12-19T17:45:34.076Z,36.55
2022-12-19T17:48:06.893Z,29.77
2022-12-19T17:50:39.433Z,36.47
2022-12-19T17:53:14.194Z,17.90
2022-12-19T17:55:49.352Z,22.27
2022-12-19T17:58:18.326Z,18.63
2022-12-19T18:00:48.859Z,15.75
2022-12-19T18:03:24.234Z,15.25
2022-12-19T18:05:56.048Z,16.67
2022-12-19T18:08:29.079Z,19.92
2022-12-19T18:11:00.339Z,24.75
2022-12-19T18:13:30.185Z,24.35
2022-12-19T18:15:59.541Z,22.58
2022-12-19T18:18:32.468Z,24.63
2022-12-19T18:21:02.890Z,52.17
2022-12-19T18:23:31.613Z,39.97
2022-12-19T18:26:02.374Z,44.70
2022-12-19T18:28:31.587Z,32.75
2022-12-19T18:31:02.299Z,50.20
2022-12-19T18:33:35.998Z,37.58
2022-12-19T18:36:06.954Z,41.40
2022-12-19T18:38:35.920Z,39.28
2022-12-19T18:41:04.030Z,28.77
2022-12-19T18:43:32.772Z,26.42
2022-12-19T18:46:00.843Z,22.95
2022-12-19T18:48:31.864Z,52.17
2022-12-19T18:51:01.555Z,29.98
2022-12-19T18:53:35.217Z,24.95
2022-12-19T18:56:05.402Z,13.75
2022-12-19T18:58:34.008Z,17.83
2022-12-19T19:01:03.317Z,19.63
2022-12-19T19:03:35.501Z,24.85
2022-12-19T19:06:05.521Z,21.77
2022-12-19T19:08:35.900Z,19.52
2022-12-19T19:11:04.034Z,21.30
2022-12-19T19:13:32.187Z,8.65
2022-12-19T19:16:01.923Z,7.80
2022-12-19T19:18:33.139Z,4.25
2022-12-19T19:21:02.516Z,6.07
2022-12-19T19:23:36.691Z,5.60
2022-12-19T19:26:04.941Z,7.97
2022-12-19T19:28:32.932Z,6.63
2022-12-19T19:31:02.361Z,3.75
2022-12-19T19:33:34.635Z,4.50
2022-12-19T19:36:12.020Z,2.80
2022-12-19T19:38:43.783Z,7.25
2022-12-19T19:41:12.726Z,4.40
2022-12-19T19:43:41.393Z,6.53
2022-12-19T19:46:12.100Z,5.05
2022-12-19T19:48:41.443Z,9.02
2022-12-19T19:51:10.030Z,7.63
2022-12-19T19:53:38.000Z,4.40
2022-12-19T19:56:08.143Z,4.07
2022-12-19T19:58:36.278Z,10.98
2022-12-19T20:01:08.917Z,4.75
2022-12-19T20:03:37.198Z,7.30
2022-12-19T20:06:05.701Z,7.53
2022-12-19T20:08:39.823Z,4.25
2022-12-19T20:11:11.065Z,10.38
2022-12-19T20:13:39.723Z,3.40
2022-12-19T20:16:09.709Z,5.00
2022-12-19T20:18:38.727Z,3.05
2022-12-19T20:21:12.685Z,7.78
2022-12-19T20:23:42.632Z,9.60
2022-12-19T20:26:13.330Z,7.47
2022-12-19T20:28:48.382Z,9.55
2022-12-19T20:31:23.689Z,16.40
2022-12-19T20:33:53.241Z,12.75
2022-12-19T20:36:21.257Z,17.38
2022-12-19T20:38:50.296Z,17.85
2022-12-19T20:41:20.426Z,13.70
2022-12-19T20:43:49.507Z,13.02
2022-12-19T20:46:20.826Z,20.83
2022-12-19T20:48:50.047Z,18.05
2022-12-19T20:51:20.690Z,9.88
2022-12-19T20:53:50.164Z,15.10
2022-12-19T20:56:30.442Z,10.80
2022-12-19T20:59:00.277Z,8.95
2022-12-19T21:01:28.385Z,6.57
2022-12-19T21:03:58.519Z,7.65
2022-12-19T21:06:28.407Z,4.53
2022-12-19T21:09:02.522Z,7.22
2022-12-19T21:11:35.705Z,13.98
2022-12-19T21:14:05.869Z,5.95
2022-12-19T21:16:34.933Z,5.60
2022-12-19T21:19:03.043Z,5.55
2022-12-19T21:21:32.170Z,6.30
2022-12-19T21:24:02.275Z,4.60
2022-12-19T21:26:34.937Z,3.92
2022-12-19T21:29:02.940Z,2.10
2022-12-19T21:31:33.522Z,5.03
2022-12-19T21:34:03.421Z,4.10
2022-12-19T21:36:33.208Z,9.70
2022-12-19T21:39:04.064Z,4.00
2022-12-19T21:41:36.329Z,6.13
2022-12-19T21:44:06.323Z,8.55
2022-12-19T21:46:40.774Z,38.17
2022-12-19T21:49:16.531Z,23.13
2022-12-19T21:51:45.114Z,10.40
2022-12-19T21:54:13.287Z,9.23
2022-12-19T21:56:42.983Z,8.05
2022-12-19T21:59:14.767Z,9.15
2022-12-19T22:01:47.613Z,6.95
2022-12-19T22:04:21.397Z,5.20
2022-12-19T22:06:51.423Z,5.25
2022-12-19T22:09:22.195Z,4.25
2022-12-19T22:11:51.940Z,4.63
2022-12-19T22:14:22.632Z,5.90
2022-12-19T22:16:51.800Z,8.10
2022-12-19T22:19:20.702Z,2.33
2022-12-19T22:21:54.321Z,4.65
2022-12-19T22:24:25.646Z,5.97
2022-12-19T22:26:58.549Z,5.22
2022-12-19T22:29:31.002Z,5.60
2022-12-19T22:32:01.796Z,4.22
2022-12-19T22:34:31.092Z,3.00
2022-12-19T22:37:05.132Z,2.58
2022-12-19T22:39:35.459Z,3.08
2022-12-19T22:42:07.011Z,2.60
2022-12-19T22:44:35.108Z,4.28
2022-12-19T22:47:04.666Z,2.72
2022-12-19T22:49:32.716Z,2.83
2022-12-19T22:52:04.113Z,2.20
2022-12-19T22:54:32.146Z,2.08
2022-12-19T22:57:00.931Z,3.63
2022-12-19T22:59:30.321Z,1.98
2022-12-19T23:01:59.664Z,3.10
2022-12-19T23:04:27.894Z,2.70
2022-12-19T23:06:55.894Z,2.67
2022-12-19T23:09:24.216Z,4.93
2022-12-19T23:11:52.197Z,5.22
2022-12-19T23:14:21.177Z,6.45
2022-12-19T23:16:50.765Z,3.38
2022-12-19T23:19:19.693Z,4.97
2022-12-19T23:21:47.759Z,3.60
2022-12-19T23:24:16.032Z,3.05
2022-12-19T23:26:44.194Z,3.58
2022-12-19T23:29:14.279Z,2.13
2022-12-19T23:31:43.905Z,2.00
2022-12-19T23:34:14.035Z,4.13
2022-12-19T23:39:30.355Z,16.75
2022-12-19T23:41:58.324Z,8.88
2022-12-19T23:44:26.362Z,7.80
2022-12-19T23:47:00.852Z,6.40
2022-12-19T23:49:32.709Z,9.27
2022-12-19T23:52:00.772Z,8.43
2022-12-19T23:54:28.809Z,14.50
2022-12-19T23:56:56.772Z,15.18
2022-12-19T23:59:25.668Z,13.82
